Time;durP1;ratioP1;P1;durP2;ratioP2;P2;SDS_P1;SDS_P2;PMS_P1;PMS_P2;Temp;Humidity;BMP_temperature;BMP_pressure;BME280_temperature;BME280_humidity;BME280_pressure;Samples;Min_cycle;Max_cycle;Signal;HPM_P1;HPM_P2
2021/03/10 00:00:23;;;;;;;52.30;24.88;;;;;;;4.98;63.70;93586.44;5089321;28;20351;-81
2021/03/10 00:02:49;;;;;;;54.72;25.98;;;;;;;4.98;63.89;93578.53;5090079;28;20024;-79
2021/03/10 00:05:14;;;;;;;58.15;24.52;;;;;;;5.00;64.32;93574.53;5091490;28;20052;-79
2021/03/10 00:07:40;;;;;;;46.83;24.25;;;;;;;4.99;64.39;93580.88;5092126;28;20058;-78
2021/03/10 00:10:08;;;;;;;49.15;23.45;;;;;;;4.97;64.10;93575.09;5093304;28;20074;-78
2021/03/10 00:12:34;;;;;;;48.78;22.65;;;;;;;4.96;64.03;93573.53;5091536;28;20047;-79
2021/03/10 00:14:59;;;;;;;47.47;23.48;;;;;;;4.95;64.33;93573.81;5093130;28;20482;-79
2021/03/10 00:17:25;;;;;;;44.15;21.45;;;;;;;4.93;63.74;93579.38;5091887;28;20030;-79
2021/03/10 00:19:50;;;;;;;38.53;18.88;;;;;;;4.96;63.88;93564.81;5091922;28;20085;-80
2021/03/10 00:22:16;;;;;;;40.75;17.98;;;;;;;4.94;63.72;93554.53;5091826;28;20036;-81
2021/03/10 00:24:42;;;;;;;33.58;17.80;;;;;;;4.97;62.83;93553.97;5092538;28;20115;-81
2021/03/10 00:27:07;;;;;;;31.63;15.27;;;;;;;4.98;62.41;93542.31;5091189;28;20035;-80
2021/03/10 00:29:33;;;;;;;34.67;15.88;;;;;;;4.98;61.99;93534.41;5090825;28;20024;-80
2021/03/10 00:31:58;;;;;;;36.05;17.08;;;;;;;5.04;62.19;93532.47;5091667;28;20031;-79
2021/03/10 00:34:24;;;;;;;34.22;18.30;;;;;;;4.98;62.40;93523.84;5092366;28;20407;-80
2021/03/10 00:36:49;;;;;;;31.08;17.95;;;;;;;4.96;62.69;93515.41;5094874;28;20505;-80
2021/03/10 00:39:15;;;;;;;32.55;18.40;;;;;;;4.99;62.57;93517.50;5096405;28;20024;-81
2021/03/10 00:41:40;;;;;;;32.97;17.48;;;;;;;5.08;62.29;93519.50;5099225;28;20495;-80
2021/03/10 00:44:05;;;;;;;33.58;19.08;;;;;;;5.03;62.29;93515.84;5100727;28;20429;-77
2021/03/10 00:46:31;;;;;;;32.10;17.58;;;;;;;5.05;62.39;93512.13;5101215;28;20020;-76
2021/03/10 00:48:56;;;;;;;37.85;19.58;;;;;;;5.08;62.43;93504.41;5100603;28;20028;-76
2021/03/10 00:51:22;;;;;;;43.72;19.30;;;;;;;5.06;62.07;93503.94;5102121;28;20035;-76
2021/03/10 00:53:47;;;;;;;41.47;20.35;;;;;;;5.06;62.47;93503.16;5100254;28;20016;-76
2021/03/10 00:56:12;;;;;;;37.70;19.77;;;;;;;5.07;62.79;93507.34;5101936;28;20023;-76
2021/03/10 00:58:38;;;;;;;41.60;20.45;;;;;;;5.03;62.81;93499.22;5102996;28;20061;-76
2021/03/10 01:01:03;;;;;;;45.08;19.63;;;;;;;5.11;62.74;93489.84;5099041;28;20492;-80
2021/03/10 01:03:29;;;;;;;45.92;21.48;;;;;;;5.10;62.45;93488.28;5094040;28;20049;-80
2021/03/10 01:05:54;;;;;;;37.28;20.88;;;;;;;5.10;61.90;93493.56;5094232;28;20040;-80
2021/03/10 01:08:20;;;;;;;36.63;20.30;;;;;;;5.09;61.74;93497.28;5096815;28;20076;-80
2021/03/10 01:10:47;;;;;;;39.00;22.02;;;;;;;5.15;62.06;93477.63;5097332;28;20032;-80
2021/03/10 01:13:13;;;;;;;37.90;21.60;;;;;;;5.11;62.09;93474.00;5092940;28;20039;-80
2021/03/10 01:15:39;;;;;;;38.85;22.02;;;;;;;5.09;62.24;93470.84;5094784;28;20047;-80
2021/03/10 01:18:04;;;;;;;37.42;21.63;;;;;;;5.10;62.37;93477.72;5094323;28;20491;-80
2021/03/10 01:20:30;;;;;;;36.08;19.73;;;;;;;5.08;62.34;93479.88;5097480;28;20028;-79
2021/03/10 01:22:55;;;;;;;42.03;20.50;;;;;;;5.07;62.59;93479.09;5100386;28;20484;-79
2021/03/10 01:25:21;;;;;;;37.15;19.83;;;;;;;5.03;62.87;93473.59;5101842;28;20031;-79
2021/03/10 01:27:46;;;;;;;39.53;21.63;;;;;;;5.06;63.11;93463.53;5101654;28;20495;-80
2021/03/10 01:30:14;;;;;;;44.50;22.40;;;;;;;5.06;63.00;93466.94;5101855;28;20032;-80
2021/03/10 01:32:40;;;;;;;34.38;19.98;;;;;;;5.06;63.12;93474.09;5102151;28;20024;-79
2021/03/10 01:35:07;;;;;;;43.47;20.90;;;;;;;5.06;63.31;93474.09;5102608;28;20402;-79
2021/03/10 01:37:33;;;;;;;41.33;21.38;;;;;;;5.01;63.55;93469.69;5104315;28;20047;-79
2021/03/10 01:40:00;;;;;;;39.75;21.42;;;;;;;5.00;63.77;93463.59;5102197;28;20016;-79
2021/03/10 01:42:25;;;;;;;50.05;22.95;;;;;;;4.99;64.02;93454.09;5102689;28;20024;-79
2021/03/10 01:44:51;;;;;;;38.85;21.85;;;;;;;5.00;64.01;93460.94;5103626;28;20031;-80
2021/03/10 01:47:18;;;;;;;43.33;23.17;;;;;;;4.96;64.38;93467.88;5098550;28;20516;-80
2021/03/10 01:49:44;;;;;;;41.65;23.80;;;;;;;4.96;64.30;93461.81;5097794;28;20032;-80
2021/03/10 01:52:10;;;;;;;43.38;23.23;;;;;;;4.95;64.23;93455.75;5094936;28;20058;-80
2021/03/10 01:54:36;;;;;;;42.22;23.23;;;;;;;4.96;64.71;93454.66;5094699;28;20432;-80
2021/03/10 01:57:01;;;;;;;40.50;22.42;;;;;;;4.92;64.70;93437.81;5095814;28;20401;-80
2021/03/10 01:59:27;;;;;;;40.03;21.75;;;;;;;4.94;64.83;93437.53;5095084;28;20181;-74
2021/03/10 02:01:53;;;;;;;38.10;22.83;;;;;;;4.91;64.90;93433.63;5092214;28;20028;-75
2021/03/10 02:04:18;;;;;;;45.17;23.02;;;;;;;4.94;64.55;93432.25;5091744;28;20024;-74
2021/03/10 02:07:13;;;;;;;45.08;24.50;;;;;;;4.92;64.84;93429.91;5092094;28;20106;-74
2021/03/10 02:10:02;;;;;;;42.22;24.30;;;;;;;4.89;65.55;93414.66;5091460;28;20114;-74
2021/03/10 02:13:04;;;;;;;41.80;22.92;;;;;;;4.92;65.44;93426.47;5093652;28;20012;-74
2021/03/10 02:15:36;;;;;;;54.72;24.52;;;;;;;4.90;65.43;93426.00;5092134;28;20024;-74
2021/03/10 02:18:06;;;;;;;45.97;24.85;;;;;;;4.81;65.85;93420.59;5091711;28;20110;-74
2021/03/10 02:20:46;;;;;;;50.80;27.77;;;;;;;4.80;66.05;93405.78;5092916;28;20092;-74
2021/03/10 02:23:32;;;;;;;45.55;25.10;;;;;;;4.79;66.35;93414.81;5092190;28;20410;-74
2021/03/10 02:26:19;;;;;;;49.72;26.67;;;;;;;4.77;66.16;93409.03;5075267;28;20050;-75
2021/03/10 02:28:47;;;;;;;44.78;24.58;;;;;;;4.76;66.27;93405.59;5093400;28;20419;-74
2021/03/10 02:31:15;;;;;;;49.08;24.42;;;;;;;4.78;66.38;93402.66;5092013;28;20036;-74
2021/03/10 02:33:42;;;;;;;47.92;24.40;;;;;;;4.80;66.28;93401.31;5092003;28;20070;-74
2021/03/10 02:36:12;;;;;;;50.30;26.55;;;;;;;4.79;66.44;93398.97;5092972;28;20032;-74
2021/03/10 02:38:47;;;;;;;42.63;24.65;;;;;;;4.81;66.04;93396.81;5091964;28;20070;-74
2021/03/10 02:41:14;;;;;;;41.53;23.80;;;;;;;4.76;66.19;93395.06;5091240;28;20053;-74
2021/03/10 02:43:40;;;;;;;53.60;24.52;;;;;;;4.78;66.14;93389.47;5091267;28;20436;-75
2021/03/10 02:46:07;;;;;;;40.95;22.77;;;;;;;4.75;66.36;93390.03;5093449;28;20427;-75
2021/03/10 02:48:33;;;;;;;43.17;24.20;;;;;;;4.70;66.46;93383.00;5091637;28;20035;-75
2021/03/10 02:51:00;;;;;;;43.78;22.08;;;;;;;4.65;66.66;93383.06;5093512;28;20088;-74
2021/03/10 02:53:26;;;;;;;42.63;24.40;;;;;;;4.62;66.80;93371.22;5091949;28;20032;-74
2021/03/10 02:55:52;;;;;;;45.90;24.55;;;;;;;4.62;66.70;93384.44;5091882;28;20085;-74
2021/03/10 02:58:17;;;;;;;43.30;24.42;;;;;;;4.57;66.93;93383.72;5091942;28;20019;-74
2021/03/10 03:00:43;;;;;;;38.28;21.05;;;;;;;4.52;67.21;93373.22;5092799;28;20380;-74
2021/03/10 03:03:09;;;;;;;41.33;22.27;;;;;;;4.48;67.22;93370.38;5093388;28;20040;-74
2021/03/10 03:05:35;;;;;;;37.00;22.27;;;;;;;4.46;67.60;93372.53;5091175;28;20052;-74
2021/03/10 03:08:03;;;;;;;41.47;21.65;;;;;;;4.46;67.52;93364.59;5090590;28;20399;-74
2021/03/10 03:10:33;;;;;;;39.25;21.95;;;;;;;4.46;67.42;93367.25;5090628;28;20047;-74
2021/03/10 03:13:01;;;;;;;41.88;21.73;;;;;;;4.46;67.46;93364.59;5090826;28;20487;-73
2021/03/10 03:15:28;;;;;;;42.55;22.20;;;;;;;4.42;67.00;93369.66;5091214;28;20043;-74
2021/03/10 03:17:55;;;;;;;46.03;21.77;;;;;;;4.43;67.55;93371.22;5091054;28;20067;-74
2021/03/10 03:20:22;;;;;;;39.95;21.52;;;;;;;4.46;67.58;93369.88;5091201;28;20055;-74
2021/03/10 03:22:51;;;;;;;40.80;21.55;;;;;;;4.41;67.82;93367.31;5091119;28;20063;-74
2021/03/10 03:25:18;;;;;;;40.85;21.88;;;;;;;4.41;67.76;93368.09;5091269;28;20475;-74
2021/03/10 03:27:51;;;;;;;37.60;21.00;;;;;;;4.42;67.82;93379.44;5091029;28;20024;-74
2021/03/10 03:30:17;;;;;;;46.05;20.58;;;;;;;4.45;67.42;93368.31;5091103;28;20123;-74
2021/03/10 03:32:44;;;;;;;38.78;20.00;;;;;;;4.51;67.63;93377.72;5091008;28;20165;-74
2021/03/10 03:35:11;;;;;;;37.70;20.00;;;;;;;4.48;67.55;93372.22;5090889;28;20020;-74
2021/03/10 03:37:37;;;;;;;40.00;21.02;;;;;;;4.48;67.35;93378.31;5090884;28;20023;-74
2021/03/10 03:40:06;;;;;;;40.50;21.67;;;;;;;4.49;67.83;93366.66;5090679;28;20039;-74
2021/03/10 03:42:32;;;;;;;38.67;20.27;;;;;;;4.52;67.36;93371.38;5090911;28;20031;-74
2021/03/10 03:44:58;;;;;;;37.42;21.13;;;;;;;4.52;67.81;93366.09;5090714;28;20495;-74
2021/03/10 03:47:24;;;;;;;36.03;19.85;;;;;;;4.53;67.75;93372.16;5089860;28;20035;-74
2021/03/10 03:49:50;;;;;;;42.30;20.25;;;;;;;4.54;67.75;93363.97;5090323;28;20067;-74
2021/03/10 03:52:16;;;;;;;35.30;17.67;;;;;;;4.57;67.63;93365.22;5090377;28;20059;-74
2021/03/10 03:54:42;;;;;;;31.45;17.40;;;;;;;4.59;67.34;93366.50;5091625;28;20024;-74
2021/03/10 03:57:08;;;;;;;31.83;17.95;;;;;;;4.53;67.30;93366.88;5090300;28;20042;-74
2021/03/10 03:59:33;;;;;;;35.30;18.40;;;;;;;4.57;67.18;93365.22;5090376;28;20094;-74
2021/03/10 04:01:59;;;;;;;32.63;18.23;;;;;;;4.60;67.05;93375.22;5090362;28;20032;-74
2021/03/10 04:04:24;;;;;;;33.85;17.17;;;;;;;4.55;67.13;93370.78;5090419;28;20122;-74
2021/03/10 04:06:50;;;;;;;35.10;17.27;;;;;;;4.55;67.46;93373.44;5090350;28;20066;-74
2021/03/10 04:09:15;;;;;;;34.75;18.10;;;;;;;4.53;67.24;93365.00;5090131;28;20032;-74
2021/03/10 04:11:43;;;;;;;27.90;15.20;;;;;;;4.56;67.20;93358.38;5090288;28;20036;-74
2021/03/10 04:14:09;;;;;;;30.15;15.73;;;;;;;4.58;67.10;93354.41;5090182;28;20032;-74
2021/03/10 04:16:35;;;;;;;27.35;15.32;;;;;;;4.58;66.76;93354.41;5090462;28;20125;-74
2021/03/10 04:19:00;;;;;;;26.30;14.80;;;;;;;4.63;66.95;93353.53;5090105;28;20027;-74
2021/03/10 04:21:26;;;;;;;24.83;14.13;;;;;;;4.63;66.77;93343.75;5089923;28;20078;-74
2021/03/10 04:23:51;;;;;;;27.77;15.38;;;;;;;4.66;66.79;93349.53;5089888;28;20024;-74
2021/03/10 04:26:17;;;;;;;26.85;14.77;;;;;;;4.59;67.06;93342.75;5090841;28;20114;-74
2021/03/10 04:28:42;;;;;;;27.70;15.10;;;;;;;4.61;67.00;93340.59;5089227;28;20028;-74
2021/03/10 04:31:07;;;;;;;26.83;14.50;;;;;;;4.62;66.79;93349.34;5089138;28;20024;-75
2021/03/10 04:33:33;;;;;;;27.45;14.75;;;;;;;4.60;67.21;93346.97;5090813;28;20023;-73
2021/03/10 04:35:58;;;;;;;30.10;15.68;;;;;;;4.60;67.36;93344.34;5090235;28;20034;-73
2021/03/10 04:38:24;;;;;;;34.60;17.33;;;;;;;4.57;67.25;93344.13;5089948;28;20028;-72
2021/03/10 04:40:49;;;;;;;31.98;15.25;;;;;;;4.58;67.10;93338.56;5091215;28;20107;-73
2021/03/10 04:43:14;;;;;;;30.48;16.58;;;;;;;4.60;67.06;93338.28;5089807;28;20030;-75
2021/03/10 04:45:40;;;;;;;33.75;17.60;;;;;;;4.57;67.22;93339.63;5090008;28;20028;-75
2021/03/10 04:48:06;;;;;;;36.42;16.25;;;;;;;4.54;67.37;93328.84;5089754;28;20028;-76
2021/03/10 04:50:31;;;;;;;37.50;17.67;;;;;;;4.56;67.33;93340.69;5089887;28;20024;-75
2021/03/10 04:52:57;;;;;;;35.15;16.55;;;;;;;4.60;66.93;93344.34;5091090;28;20024;-75
2021/03/10 04:55:22;;;;;;;39.47;18.42;;;;;;;4.55;67.18;93330.44;5091050;28;20161;-75
2021/03/10 04:57:47;;;;;;;33.67;18.02;;;;;;;4.53;67.20;93335.97;5089546;28;20016;-75
2021/03/10 05:00:13;;;;;;;33.53;17.60;;;;;;;4.57;67.06;93342.25;5089530;28;20125;-74
2021/03/10 05:02:39;;;;;;;39.15;16.52;;;;;;;4.57;67.02;93338.84;5090889;28;20024;-73
2021/03/10 05:05:06;;;;;;;33.42;18.15;;;;;;;4.59;67.05;93337.47;5089044;28;20024;-73
2021/03/10 05:07:32;;;;;;;35.08;18.20;;;;;;;4.56;67.48;93331.97;5089390;28;20047;-74
2021/03/10 05:09:58;;;;;;;32.95;15.32;;;;;;;4.56;67.24;93329.34;5090703;28;20081;-75
2021/03/10 05:12:26;;;;;;;30.85;15.60;;;;;;;4.52;67.16;93338.91;5088939;28;21521;-74
2021/03/10 05:14:52;;;;;;;34.95;17.80;;;;;;;4.54;67.84;93334.94;5090255;28;20077;-74
2021/03/10 05:17:17;;;;;;;40.88;18.40;;;;;;;4.57;67.66;93330.91;5088874;28;20083;-75
2021/03/10 05:19:42;;;;;;;37.35;18.13;;;;;;;4.58;67.51;93335.91;5088937;28;20399;-74
2021/03/10 05:22:08;;;;;;;31.23;17.23;;;;;;;4.59;67.47;93337.47;5089744;28;20031;-73
2021/03/10 05:24:33;;;;;;;29.38;15.60;;;;;;;4.58;67.57;93327.19;5088732;28;20035;-73
2021/03/10 05:26:59;;;;;;;28.58;15.70;;;;;;;4.59;67.27;93326.91;5088688;28;20069;-73
2021/03/10 05:29:24;;;;;;;33.75;17.70;;;;;;;4.54;67.66;93324.38;5085902;28;20055;-73
2021/03/10 05:31:49;;;;;;;32.05;16.65;;;;;;;4.57;67.43;93326.41;5089068;28;20081;-73
2021/03/10 05:34:15;;;;;;;27.83;15.35;;;;;;;4.60;66.99;93327.72;5088659;28;20062;-73
2021/03/10 05:36:40;;;;;;;21.60;12.60;;;;;;;4.52;66.69;93326.50;5090013;28;20447;-73
2021/03/10 05:39:06;;;;;;;27.60;14.98;;;;;;;4.50;67.03;93323.38;5088890;28;20032;-73
2021/03/10 05:41:31;;;;;;;28.35;15.02;;;;;;;4.48;67.02;93319.44;5088362;28;20043;-73
2021/03/10 05:44:01;;;;;;;25.92;13.15;;;;;;;4.38;67.04;93315.91;5088832;28;20032;-73
2021/03/10 05:46:26;;;;;;;24.77;13.38;;;;;;;4.41;67.26;93319.81;5088350;28;20106;-73
2021/03/10 05:48:52;;;;;;;25.15;12.60;;;;;;;4.41;67.11;93333.00;5088903;28;20558;-73
2021/03/10 05:51:19;;;;;;;17.25;10.10;;;;;;;4.42;66.91;93322.16;5088652;28;20024;-73
2021/03/10 05:53:45;;;;;;;22.15;10.90;;;;;;;4.44;67.06;93321.88;5088554;28;20392;-73
2021/03/10 05:56:11;;;;;;;24.02;12.55;;;;;;;4.42;67.67;93331.94;5088491;28;20069;-73
2021/03/10 05:58:36;;;;;;;25.75;12.38;;;;;;;4.49;67.81;93324.44;5088379;28;20416;-73
2021/03/10 06:01:02;;;;;;;24.52;12.48;;;;;;;4.47;67.31;93333.72;5087850;28;20033;-73
2021/03/10 06:03:27;;;;;;;28.27;12.52;;;;;;;4.35;67.61;93323.59;5089786;28;20030;-72
2021/03/10 06:05:59;;;;;;;27.20;12.77;;;;;;;4.38;67.74;93330.94;5089946;28;20064;-73
2021/03/10 06:08:30;;;;;;;27.83;13.60;;;;;;;4.38;67.94;93326.44;5088708;28;20053;-72
2021/03/10 06:10:55;;;;;;;29.25;13.82;;;;;;;4.32;68.11;93319.69;5090476;28;20511;-73
2021/03/10 06:13:26;;;;;;;26.80;13.13;;;;;;;4.38;67.71;93320.41;5092202;28;20028;-72
2021/03/10 06:15:53;;;;;;;24.17;13.45;;;;;;;4.38;67.87;93328.31;5092562;28;20026;-72
2021/03/10 06:18:28;;;;;;;23.52;12.90;;;;;;;4.39;67.69;93322.72;5093739;28;20055;-72
2021/03/10 06:21:07;;;;;;;27.05;13.30;;;;;;;4.41;67.68;93330.38;5092462;28;20051;-72
2021/03/10 06:23:34;;;;;;;28.98;14.30;;;;;;;4.41;67.56;93303.97;5092503;28;20034;-73
2021/03/10 06:26:04;;;;;;;32.63;14.10;;;;;;;4.46;67.43;93309.19;5092390;28;20101;-73
2021/03/10 06:28:39;;;;;;;25.95;14.25;;;;;;;4.48;67.79;93309.69;5092227;28;20550;-73
2021/03/10 06:31:35;;;;;;;23.67;11.95;;;;;;;4.55;67.19;93315.38;5091831;28;20031;-73
2021/03/10 06:34:11;;;;;;;25.45;14.40;;;;;;;4.62;67.49;93317.66;5078768;28;20370;-73
2021/03/10 06:36:43;;;;;;;26.80;13.70;;;;;;;4.66;67.07;93309.91;5092989;28;20035;-73
2021/03/10 06:39:13;;;;;;;25.83;12.63;;;;;;;4.62;67.39;93307.88;5091521;28;20027;-73
2021/03/10 06:41:43;;;;;;;27.85;13.98;;;;;;;4.54;67.69;93308.53;5091163;28;20028;-72
2021/03/10 06:44:27;;;;;;;23.15;13.85;;;;;;;4.52;67.95;93321.25;5091356;28;20024;-73
2021/03/10 06:47:00;;;;;;;25.90;13.50;;;;;;;4.53;67.60;93322.00;5085845;28;20036;-73
2021/03/10 06:49:29;;;;;;;22.60;12.55;;;;;;;4.57;68.00;93321.13;5091726;28;20347;-73
2021/03/10 06:52:01;;;;;;;27.73;14.27;;;;;;;4.57;67.75;93315.09;5089571;28;20487;-71
2021/03/10 06:54:27;;;;;;;;;;;;;;;4.55;68.29;93319.88;5091229;28;20027;-71
2021/03/10 06:57:14;;;;;;;27.48;15.10;;;;;;;4.55;68.54;93330.44;5090796;28;19916;-71
2021/03/10 06:59:44;;;;;;;28.83;15.10;;;;;;;4.56;68.29;93327.50;5089279;28;20471;-70
2021/03/10 07:02:15;;;;;;;27.88;15.95;;;;;;;4.59;67.72;93326.91;5091487;28;20060;-70
2021/03/10 07:04:46;;;;;;;34.30;19.40;;;;;;;4.59;68.05;93326.13;5090347;28;20035;-69
2021/03/10 07:07:12;;;;;;;33.92;17.70;;;;;;;4.65;67.84;93329.50;5090055;28;20044;-70
2021/03/10 07:09:38;;;;;;;32.42;17.75;;;;;;;4.66;67.73;93334.50;5093088;28;20403;-70
2021/03/10 07:12:07;;;;;;;36.75;18.25;;;;;;;4.58;67.75;93337.75;5091569;28;20454;-69
2021/03/10 07:14:34;;;;;;;33.28;19.42;;;;;;;4.55;67.93;93347.03;5091880;28;20380;-69
2021/03/10 07:16:59;;;;;;;39.50;21.23;;;;;;;4.56;67.98;93348.63;5093349;28;20042;-70
2021/03/10 07:19:25;;;;;;;40.83;20.80;;;;;;;4.59;68.30;93344.63;5093127;28;20028;-70
2021/03/10 07:21:56;;;;;;;39.70;21.63;;;;;;;4.60;68.44;93349.63;5092995;28;20047;-70
2021/03/10 07:24:31;;;;;;;38.95;20.20;;;;;;;4.57;68.28;93344.91;5091051;28;20039;-70
2021/03/10 07:26:59;;;;;;;37.72;19.95;;;;;;;4.53;68.25;93351.03;5092139;28;20036;-70
2021/03/10 07:29:27;;;;;;;37.92;20.02;;;;;;;4.57;68.51;93355.44;5090455;28;20384;-70
2021/03/10 07:32:00;;;;;;;40.42;19.83;;;;;;;4.62;67.74;93357.25;5090761;28;20404;-70
2021/03/10 07:34:26;;;;;;;46.97;18.90;;;;;;;4.63;67.76;93359.59;5091418;28;20019;-70
2021/03/10 07:36:52;;;;;;;38.40;21.40;;;;;;;4.63;68.42;93353.53;5091108;28;20074;-71
2021/03/10 07:39:31;;;;;;;35.67;20.42;;;;;;;4.66;68.66;93339.75;5092765;28;20036;-71
2021/03/10 07:42:11;;;;;;;41.05;20.80;;;;;;;4.67;68.85;93348.47;5093122;28;20054;-72
2021/03/10 07:44:37;;;;;;;38.75;21.67;;;;;;;4.68;68.45;93352.66;5092236;28;20023;-72
2021/03/10 07:47:08;;;;;;;41.55;23.67;;;;;;;4.75;67.98;93361.00;5093751;28;20061;-72
2021/03/10 07:49:35;;;;;;;37.78;21.58;;;;;;;4.82;69.23;93364.03;5092933;28;20464;-72
2021/03/10 07:52:04;;;;;;;40.03;22.15;;;;;;;4.88;68.55;93359.47;5093012;28;20107;-75
2021/03/10 07:54:30;;;;;;;38.20;21.30;;;;;;;4.91;68.30;93359.69;5091075;28;20123;-73
2021/03/10 07:57:15;;;;;;;41.58;22.23;;;;;;;4.92;68.03;93341.97;5093125;28;20093;-73
2021/03/10 08:00:03;;;;;;;42.30;23.15;;;;;;;4.99;67.15;93355.59;5092084;28;20089;-75
2021/03/10 08:02:48;;;;;;;41.45;23.20;;;;;;;5.01;67.16;93348.16;5091746;28;20105;-75
2021/03/10 08:05:22;;;;;;;41.42;22.10;;;;;;;4.97;66.91;93347.97;5089711;28;20107;-75
2021/03/10 08:07:47;;;;;;;40.97;22.95;;;;;;;5.00;66.54;93350.00;5093061;28;20032;-75
2021/03/10 08:10:26;;;;;;;38.70;23.23;;;;;;;4.99;66.97;93345.03;5091304;28;20755;-76
2021/03/10 08:12:52;;;;;;;46.67;23.83;;;;;;;5.04;66.96;93347.59;5089511;28;20481;-76
2021/03/10 08:15:23;;;;;;;46.03;23.98;;;;;;;5.08;66.80;93353.06;5091826;28;20028;-75
2021/03/10 08:17:49;;;;;;;40.70;23.15;;;;;;;5.06;66.71;93349.94;5093093;28;20028;-75
2021/03/10 08:20:15;;;;;;;46.22;23.27;;;;;;;5.04;66.79;93342.28;5091223;28;20073;-75
2021/03/10 08:22:41;;;;;;;43.47;24.73;;;;;;;5.07;66.83;93343.56;5092949;28;20024;-75
2021/03/10 08:25:13;;;;;;;41.15;24.27;;;;;;;5.07;66.84;93346.22;5091784;28;20039;-75
2021/03/10 08:27:40;;;;;;;;;;;;;;;5.07;66.96;93330.34;5093625;28;20020;-74
2021/03/10 08:30:08;;;;;;;42.20;22.33;;;;;;;5.09;66.74;93330.84;5092499;28;19912;-74
2021/03/10 08:32:34;;;;;;;45.67;23.55;;;;;;;5.17;66.84;93327.53;5091479;28;20020;-75
2021/03/10 08:35:11;;;;;;;45.75;24.95;;;;;;;5.23;66.20;93329.00;5093749;28;20035;-74
2021/03/10 08:37:38;;;;;;;39.92;22.15;;;;;;;5.21;66.29;93320.59;5093233;28;20380;-74
2021/03/10 08:40:06;;;;;;;43.83;23.33;;;;;;;5.22;66.51;93316.88;5092918;28;20069;-75
2021/03/10 08:42:31;;;;;;;47.20;23.83;;;;;;;5.25;66.07;93321.59;5091892;28;20039;-74
2021/03/10 08:44:57;;;;;;;42.25;23.77;;;;;;;5.24;66.56;93314.75;5092069;28;20459;-75
2021/03/10 08:47:24;;;;;;;44.40;23.85;;;;;;;5.23;66.58;93329.00;5091028;28;20032;-76
2021/03/10 08:49:58;;;;;;;43.40;23.23;;;;;;;5.26;66.40;93323.16;5091071;28;20059;-75
2021/03/10 08:52:30;;;;;;;39.80;22.92;;;;;;;5.30;66.34;93331.28;5092507;28;20395;-75
2021/03/10 08:55:01;;;;;;;41.58;23.20;;;;;;;5.28;66.32;93331.56;5089710;28;20472;-74
2021/03/10 08:57:36;;;;;;;42.80;23.13;;;;;;;5.30;66.31;93332.06;5089635;28;20028;-74
2021/03/10 09:00:06;;;;;;;46.05;26.25;;;;;;;5.33;66.17;93346.53;5088496;28;20054;-73
2021/03/10 09:02:34;;;;;;;46.17;25.85;;;;;;;5.33;66.05;93339.44;5090601;28;20016;-73
2021/03/10 09:05:05;;;;;;;42.38;24.60;;;;;;;5.29;66.15;93332.34;5092227;28;20507;-75
2021/03/10 09:07:31;;;;;;;38.25;21.67;;;;;;;5.31;65.79;93344.22;5090685;28;20039;-72
2021/03/10 09:10:07;;;;;;;34.25;20.13;;;;;;;5.30;66.33;93345.28;5092709;28;20028;-72
2021/03/10 09:12:33;;;;;;;36.53;21.77;;;;;;;5.29;66.27;93332.34;5092495;28;20032;-73
2021/03/10 09:14:59;;;;;;;37.35;20.80;;;;;;;5.29;66.06;93335.00;5091188;28;20420;-73
2021/03/10 09:17:40;;;;;;;32.03;20.02;;;;;;;5.25;66.67;93345.38;5091861;28;20188;-74
2021/03/10 09:20:28;;;;;;;33.00;19.13;;;;;;;5.28;66.08;93342.16;5091944;28;20039;-74
2021/03/10 09:22:54;;;;;;;35.22;19.63;;;;;;;5.30;66.21;93345.28;5091601;28;20471;-74
2021/03/10 09:25:25;;;;;;;29.73;16.77;;;;;;;5.29;65.76;93340.28;5090626;28;20028;-73
2021/03/10 09:28:02;;;;;;;29.67;17.65;;;;;;;5.34;65.77;93348.91;5091735;28;20028;-74
2021/03/10 09:30:30;;;;;;;35.22;20.98;;;;;;;5.33;65.85;93354.47;5091481;28;20031;-74
2021/03/10 09:32:56;;;;;;;31.92;19.05;;;;;;;5.32;65.66;93352.91;5090968;28;20024;-74
2021/03/10 09:35:34;;;;;;;37.85;18.65;;;;;;;5.35;65.43;93357.59;5091378;28;20115;-75
2021/03/10 09:38:02;;;;;;;27.00;16.95;;;;;;;5.32;65.75;93361.63;5091409;28;20024;-74
2021/03/10 09:40:42;;;;;;;29.02;16.45;;;;;;;5.31;65.21;93352.16;5090422;28;20396;-74
2021/03/10 09:43:10;;;;;;;28.75;16.27;;;;;;;5.27;65.45;93345.88;5091986;28;20038;-72
2021/03/10 09:45:38;;;;;;;26.90;16.40;;;;;;;5.21;65.74;93347.00;5091976;28;20114;-73
2021/03/10 09:48:06;;;;;;;25.50;15.07;;;;;;;5.24;65.46;93351.72;5096086;28;20043;-73
2021/03/10 09:50:35;;;;;;;25.00;14.40;;;;;;;5.19;65.55;93354.44;5094556;28;20043;-72
2021/03/10 09:53:12;;;;;;;28.17;14.13;;;;;;;5.17;65.59;93351.31;5094311;28;20074;-72
2021/03/10 09:55:37;;;;;;;25.15;14.13;;;;;;;5.21;65.86;93347.00;5094034;28;20394;-71
2021/03/10 09:58:07;;;;;;;21.35;13.50;;;;;;;5.23;65.57;93352.78;5094824;28;20032;-72
2021/03/10 10:00:34;;;;;;;27.45;15.07;;;;;;;5.19;65.72;93347.31;5094327;28;20039;-71
2021/03/10 10:02:59;;;;;;;30.95;16.00;;;;;;;5.15;65.83;93348.19;5093286;28;20123;-71
2021/03/10 10:05:28;;;;;;;32.38;18.60;;;;;;;5.15;66.28;93340.25;5092857;28;20071;-71
2021/03/10 10:07:55;;;;;;;29.30;18.08;;;;;;;5.15;66.46;93338.41;5095791;28;20115;-71
2021/03/10 10:10:21;;;;;;;29.48;16.40;;;;;;;5.17;66.20;93346.03;5095829;28;20540;-71
2021/03/10 10:12:49;;;;;;;33.47;20.85;;;;;;;5.21;66.23;93347.00;5095641;28;20069;-71
2021/03/10 10:15:17;;;;;;;38.20;20.92;;;;;;;5.21;65.26;93347.81;5094353;28;20052;-71
2021/03/10 10:17:48;;;;;;;37.25;21.42;;;;;;;5.19;65.56;93344.69;5095808;28;20203;-72
2021/03/10 10:20:15;;;;;;;37.72;20.02;;;;;;;5.11;65.50;93345.34;5094363;28;20059;-71
2021/03/10 10:22:41;;;;;;;34.40;18.23;;;;;;;5.00;65.67;93334.16;5093708;28;20024;-73
2021/03/10 10:25:07;;;;;;;36.38;20.20;;;;;;;4.87;66.34;93350.78;5095201;28;20046;-71
2021/03/10 10:27:33;;;;;;;31.38;17.13;;;;;;;4.77;67.07;93358.84;5093301;28;20424;-71
2021/03/10 10:29:58;;;;;;;34.63;20.02;;;;;;;4.58;67.13;93351.75;5092959;28;20493;-73
2021/03/10 10:32:24;;;;;;;36.63;20.67;;;;;;;4.53;67.83;93349.19;5094251;28;20023;-72
2021/03/10 10:34:50;;;;;;;34.50;19.15;;;;;;;4.44;68.21;93350.91;5094431;28;20032;-72
2021/03/10 10:37:19;;;;;;;29.55;18.27;;;;;;;4.39;68.69;93343.06;5093272;28;20024;-73
2021/03/10 10:39:45;;;;;;;30.75;17.48;;;;;;;4.35;68.73;93355.25;5092077;28;20024;-72
2021/03/10 10:42:10;;;;;;;34.75;18.48;;;;;;;4.33;69.06;93349.47;5091034;28;20094;-72
2021/03/10 10:44:37;;;;;;;30.92;17.90;;;;;;;4.37;69.25;93351.25;5091756;28;20035;-72
2021/03/10 10:47:02;;;;;;;39.05;20.05;;;;;;;4.36;69.40;93348.94;5090169;28;20448;-72
2021/03/10 10:49:27;;;;;;;54.90;20.92;;;;;;;4.40;69.96;93345.41;5091614;28;20268;-72
2021/03/10 10:51:53;;;;;;;33.22;18.17;;;;;;;4.37;69.73;93353.13;5090290;28;20020;-71
2021/03/10 10:54:29;;;;;;;79.22;27.85;;;;;;;4.30;70.55;93348.22;5090865;28;20499;-71
2021/03/10 10:56:54;;;;;;;52.22;23.60;;;;;;;4.24;70.77;93348.56;5090109;28;20106;-74
2021/03/10 10:59:20;;;;;;;49.20;23.30;;;;;;;4.20;71.60;93351.00;5090818;28;20078;-73
2021/03/10 11:01:45;;;;;;;41.60;20.33;;;;;;;4.11;71.18;93348.22;5090300;28;20039;-73
2021/03/10 11:04:11;;;;;;;38.78;20.95;;;;;;;3.95;71.90;93344.22;5089735;28;20412;-73
2021/03/10 11:06:39;;;;;;;47.17;21.00;;;;;;;3.86;73.46;93353.81;5090031;28;20071;-73
2021/03/10 11:09:08;;;;;;;41.22;21.27;;;;;;;3.94;73.63;93358.44;5090403;28;20119;-73
2021/03/10 11:11:33;;;;;;;29.05;17.98;;;;;;;4.03;73.34;93351.50;5092324;28;20043;-73
2021/03/10 11:13:59;;;;;;;31.88;18.25;;;;;;;4.08;73.09;93343.50;5092031;28;20028;-73
2021/03/10 11:16:24;;;;;;;35.55;18.48;;;;;;;4.07;73.03;93352.50;5091565;28;20107;-71
2021/03/10 11:18:50;;;;;;;27.55;15.27;;;;;;;4.02;72.33;93349.91;5091453;28;20028;-72
2021/03/10 11:21:16;;;;;;;29.30;17.02;;;;;;;4.06;72.52;93361.47;5091744;28;20407;-72
2021/03/10 11:23:41;;;;;;;30.58;16.48;;;;;;;4.10;72.26;93351.13;5091462;28;20506;-71
2021/03/10 11:26:07;;;;;;;34.67;18.30;;;;;;;4.10;72.03;93354.53;5092233;28;20024;-72
2021/03/10 11:28:32;;;;;;;34.65;12.55;;;;;;;3.97;70.78;93365.81;5092755;28;20532;-71
2021/03/10 11:30:58;;;;;;;18.63;10.77;;;;;;;3.69;70.47;93356.94;5091860;28;20100;-72